Time;durP1;ratioP1;P1;durP2;ratioP2;P2;SDS_P1;SDS_P2;PMS_P1;PMS_P2;Temp;Humidity;BMP_temperature;BMP_pressure;BME280_temperature;BME280_humidity;BME280_pressure;Samples;Min_cycle;Max_cycle;Signal;HPM_P1;HPM_P2
2022/09/13 00:01:14;;;;;;;;;;;;;;;24.41;62.89;100465.09;7419358;19;1434;-81
2022/09/13 00:03:52;;;;;;;;;;;;;;;24.38;63.03;100491.63;7421232;19;1138;-82
2022/09/13 00:06:29;;;;;;;;;;;;;;;24.44;63.19;100493.59;7420540;19;1800;-81
2022/09/13 00:09:04;;;;;;;;;;;;;;;24.39;63.16;100475.22;7418513;19;1709;-81
2022/09/13 00:11:32;;;;;;;;;;;;;;;24.40;63.15;100473.38;7422658;19;944;-81
2022/09/13 00:14:04;;;;;;;;;;;;;;;24.40;63.03;100485.00;7421729;19;1839;-80
2022/09/13 00:16:47;;;;;;;;;;;;;;;24.42;62.93;100493.78;7419291;19;1010;-81
2022/09/13 00:19:33;;;;;;;;;;;;;;;24.40;63.25;100478.75;7420625;19;885;-81
2022/09/13 00:22:11;;;;;;;;;;;;;;;24.39;63.10;100468.97;7422622;19;945;-80
2022/09/13 00:24:48;;;;;;;;;;;;;;;24.39;63.00;100485.19;7417040;19;1001;-82
2022/09/13 00:27:16;;;;;;;;;;;;;;;24.38;63.35;100470.00;7416776;19;1014;-78
2022/09/13 00:29:45;;;;;;;;;;;;;;;24.38;63.02;100470.00;7419569;19;1039;-81
2022/09/13 00:32:13;;;;;;;;;;;;;;;24.36;63.17;100470.16;7419851;19;1681;-81
2022/09/13 00:34:44;;;;;;;;;;;;;;;24.38;63.09;100467.28;7424917;19;1966;-81
2022/09/13 00:37:16;;;;;;;;;;;;;;;24.36;63.05;100477.44;7420294;19;1068;-80
2022/09/13 00:39:45;;;;;;;;;;;;;;;24.39;63.04;100493.28;7415218;19;1390;-79
2022/09/13 00:42:26;;;;;;;;;;;;;;;24.35;63.04;100476.59;7421175;19;1402;-80
2022/09/13 00:45:03;;;;;;;;;;;;;;;24.34;63.01;100457.88;7417567;19;955;-80
2022/09/13 00:47:40;;;;;;;;;;;;;;;24.35;62.95;100473.91;7420928;19;1736;-80
2022/09/13 00:50:13;;;;;;;;;;;;;;;24.33;63.22;100470.53;7417225;19;1016;-82
2022/09/13 00:53:00;;;;;;;;;;;;;;;24.34;63.20;100457.88;7415702;19;1845;-81
2022/09/13 00:55:40;;;;;;;;;;;;;;;24.31;63.41;100474.41;7411698;19;1390;-81
2022/09/13 00:58:25;;;;;;;;;;;;;;;24.34;63.24;100491.13;7415006;19;1016;-81
2022/09/13 01:01:03;;;;;;;;;;;;;;;24.35;63.16;100482.00;7418721;19;1781;-81
2022/09/13 01:03:38;;;;;;;;;;;;;;;24.36;63.04;100478.28;7412839;19;1397;-80
2022/09/13 01:06:12;;;;;;;;;;;;;;;24.32;63.00;100474.25;7414830;19;1054;-81
2022/09/13 01:08:53;;;;;;;;;;;;;;;24.31;63.35;100464.47;7417863;19;1728;-82
2022/09/13 01:11:40;;;;;;;;;;;;;;;24.34;62.96;100474.91;7417791;19;1399;-81
2022/09/13 01:14:27;;;;;;;;;;;;;;;24.34;63.00;100468.66;7417573;19;1833;-81
2022/09/13 01:17:11;;;;;;;;;;;;;;;24.32;63.08;100468.00;7412867;19;1472;-81
2022/09/13 01:19:43;;;;;;;;;;;;;;;24.34;63.08;100476.78;7416672;19;966;-81
2022/09/13 01:22:28;;;;;;;;;;;;;;;24.29;63.15;100465.66;7415700;19;1787;-81
2022/09/13 01:25:08;;;;;;;;;;;;;;;24.30;62.86;100468.19;7413807;19;1382;-80
2022/09/13 01:27:55;;;;;;;;;;;;;;;24.34;63.30;100474.91;7415107;19;1327;-81
2022/09/13 01:30:36;;;;;;;;;;;;;;;24.29;63.37;100468.34;7414721;19;1058;-82
2022/09/13 01:36:17;;;;;;;;;;;;;;;24.29;63.10;100471.06;7412651;19;852;-82
2022/09/13 01:38:56;;;;;;;;;;;;;;;24.29;63.03;100471.91;7413084;19;1409;-82
2022/09/13 01:41:52;;;;;;;;;;;;;;;24.27;63.18;100462.28;7417926;19;1886;-81
2022/09/13 01:44:32;;;;;;;;;;;;;;;24.28;63.30;100467.53;7417382;19;1772;-82
2022/09/13 01:47:22;;;;;;;;;;;;;;;24.29;63.11;100468.34;7416908;19;1078;-82
2022/09/13 01:50:07;;;;;;;;;;;;;;;24.31;63.33;100469.00;7422906;19;1043;-81
2022/09/13 01:58:29;;;;;;;;;;;;;;;24.30;63.22;100465.47;7416402;19;1226;-81
2022/09/13 02:01:02;;;;;;;;;;;;;;;24.24;63.14;100458.09;7403817;19;3557;-58
2022/09/13 02:03:33;;;;;;;;;;;;;;;24.30;62.98;100456.53;7399936;19;1620;-58
2022/09/13 02:06:02;;;;;;;;;;;;;;;24.26;63.11;100460.63;7399132;19;1627;-58
2022/09/13 02:08:36;;;;;;;;;;;;;;;24.25;63.06;100465.16;7408126;19;1740;-58
2022/09/13 02:11:09;;;;;;;;;;;;;;;24.21;63.00;100453.88;7410862;19;1540;-58
2022/09/13 02:13:42;;;;;;;;;;;;;;;24.24;63.13;100458.09;7407805;19;1859;-58
2022/09/13 02:16:14;;;;;;;;;;;;;;;24.29;63.17;100468.34;7410165;19;1551;-58
2022/09/13 02:18:45;;;;;;;;;;;;;;;24.28;63.03;100458.56;7411247;19;1496;-58
2022/09/13 02:21:15;;;;;;;;;;;;;;;24.25;63.36;100458.91;7410574;19;1881;-58
2022/09/13 02:23:46;;;;;;;;;;;;;;;24.24;63.08;100443.75;7411337;19;948;-58
2022/09/13 02:26:16;;;;;;;;;;;;;;;24.24;63.36;100447.28;7409509;19;1878;-58
2022/09/13 02:28:49;;;;;;;;;;;;;;;24.23;63.35;100461.78;7411396;19;992;-58
2022/09/13 02:31:20;;;;;;;;;;;;;;;24.23;63.21;100448.28;7411677;19;1697;-58
2022/09/13 02:33:50;;;;;;;;;;;;;;;24.20;63.21;100468.41;7408936;19;1850;-58
2022/09/13 02:36:22;;;;;;;;;;;;;;;24.20;63.06;100443.25;7409103;19;1717;-58
2022/09/13 02:38:54;;;;;;;;;;;;;;;24.22;63.13;100447.44;7406306;19;1752;-58
2022/09/13 02:41:27;;;;;;;;;;;;;;;24.21;63.31;100453.88;7409436;19;1591;-58
2022/09/13 02:43:59;;;;;;;;;;;;;;;24.20;63.31;100452.19;7410206;19;1512;-58
2022/09/13 02:46:36;;;;;;;;;;;;;;;24.19;63.16;100449.66;7410039;19;1528;-58
2022/09/13 02:49:08;;;;;;;;;;;;;;;24.19;63.37;100455.94;7410178;19;963;-58
2022/09/13 02:51:44;;;;;;;;;;;;;;;24.22;63.27;100470.94;7410219;19;1768;-58
2022/09/13 02:54:17;;;;;;;;;;;;;;;24.18;63.08;100456.09;7407997;19;1866;-58
2022/09/13 02:56:50;;;;;;;;;;;;;;;24.20;62.97;100459.47;7410388;19;1540;-58
2022/09/13 02:59:22;;;;;;;;;;;;;;;24.20;63.42;100456.75;7410295;19;1586;-58
2022/09/13 03:01:52;;;;;;;;;;;;;;;24.17;63.04;100451.69;7407155;19;1598;-58
2022/09/13 03:04:20;;;;;;;;;;;;;;;24.19;63.35;100455.94;7410187;19;1572;-58
2022/09/13 03:06:51;;;;;;;;;;;;;;;24.21;63.08;100464.69;7408612;19;954;-58
2022/09/13 03:09:19;;;;;;;;;;;;;;;24.19;63.10;100458.63;7410619;19;987;-69
2022/09/13 03:12:08;;;;;;;;;;;;;;;24.17;63.26;100460.66;7408937;19;1690;-69
2022/09/13 03:14:44;;;;;;;;;;;;;;;24.17;63.33;100457.97;7407177;19;1842;-69
2022/09/13 03:17:17;;;;;;;;;;;;;;;24.22;63.36;100468.22;7404545;19;1898;-69
2022/09/13 03:20:03;;;;;;;;;;;;;;;24.15;63.33;100457.31;7409850;19;1516;-69
2022/09/13 03:22:46;;;;;;;;;;;;;;;24.15;63.16;100448.34;7408768;19;1342;-69
2022/09/13 03:25:21;;;;;;;;;;;;;;;24.16;63.06;100463.53;7407449;19;2038;-69
2022/09/13 03:27:54;;;;;;;;;;;;;;;24.17;63.09;100446.28;7409833;19;934;-69
2022/09/13 03:30:24;;;;;;;;;;;;;;;24.16;63.01;100455.44;7406921;19;1686;-69
2022/09/13 03:32:57;;;;;;;;;;;;;;;24.16;62.94;100461.66;7408262;19;1575;-58
2022/09/13 03:35:29;;;;;;;;;;;;;;;24.13;63.08;100453.94;7405249;19;1850;-58
2022/09/13 03:38:01;;;;;;;;;;;;;;;24.16;63.01;100460.84;7405993;19;1063;-58
2022/09/13 03:40:41;;;;;;;;;;;;;;;24.15;63.32;100461.84;7409069;19;953;-58
2022/09/13 03:43:12;;;;;;;;;;;;;;;24.16;63.13;100460.84;7409529;19;1008;-58
2022/09/13 03:45:44;;;;;;;;;;;;;;;24.13;63.20;100459.34;7403432;19;1792;-58
2022/09/13 03:48:13;;;;;;;;;;;;;;;24.10;63.09;100446.16;7408031;19;1287;-58
2022/09/13 03:50:42;;;;;;;;;;;;;;;24.20;62.89;100448.66;7406787;19;1396;-58
2022/09/13 03:53:12;;;;;;;;;;;;;;;24.12;63.17;100446.84;7406839;19;1345;-58
2022/09/13 03:55:41;;;;;;;;;;;;;;;24.15;63.02;100462.69;7403344;19;1838;-58
2022/09/13 03:58:12;;;;;;;;;;;;;;;24.15;63.13;100453.72;7407991;19;1110;-58
2022/09/13 04:00:44;;;;;;;;;;;;;;;24.18;63.08;100469.59;7404805;19;1414;-59
2022/09/13 04:03:13;;;;;;;;;;;;;;;24.14;63.08;100466.41;7403781;19;1471;-58
2022/09/13 04:05:41;;;;;;;;;;;;;;;24.13;62.81;100456.63;7407581;19;1113;-58
2022/09/13 04:08:09;;;;;;;;;;;;;;;24.14;63.02;100458.31;7406146;19;1367;-58
2022/09/13 04:10:38;;;;;;;;;;;;;;;24.15;62.93;100460.00;7407653;19;1531;-58
2022/09/13 04:13:07;;;;;;;;;;;;;;;24.15;63.02;100469.94;7407697;19;1539;-58
2022/09/13 04:15:35;;;;;;;;;;;;;;;24.14;62.88;100471.81;7405828;19;1848;-58
2022/09/13 04:18:07;;;;;;;;;;;;;;;24.13;63.04;100464.75;7406810;19;1694;-58
2022/09/13 04:20:36;;;;;;;;;;;;;;;24.15;63.10;100467.25;7407409;19;1543;-58
2022/09/13 04:23:04;;;;;;;;;;;;;;;24.13;62.91;100459.34;7406749;19;1665;-58
2022/09/13 04:25:32;;;;;;;;;;;;;;;24.14;62.95;100468.28;7404379;19;1722;-69
2022/09/13 04:28:01;;;;;;;;;;;;;;;24.14;62.82;100479.91;7408069;19;963;-69
2022/09/13 04:30:29;;;;;;;;;;;;;;;24.10;62.87;100461.53;7403985;19;1658;-69
2022/09/13 04:32:58;;;;;;;;;;;;;;;24.14;63.04;100470.97;7406002;19;1552;-69
2022/09/13 04:35:29;;;;;;;;;;;;;;;24.15;63.05;100469.94;7404113;19;1842;-69
2022/09/13 04:37:57;;;;;;;;;;;;;;;24.14;62.93;100469.09;7405483;19;1589;-69
2022/09/13 04:40:25;;;;;;;;;;;;;;;24.13;63.07;100475.53;7404476;19;1392;-69
2022/09/13 04:42:53;;;;;;;;;;;;;;;24.13;62.98;100470.16;7404805;19;1237;-69
2022/09/13 04:45:21;;;;;;;;;;;;;;;24.13;63.11;100482.78;7405590;19;1371;-69
2022/09/13 04:47:52;;;;;;;;;;;;;;;24.14;63.00;100479.91;7406848;19;1271;-70
2022/09/13 04:50:20;;;;;;;;;;;;;;;24.12;62.82;100481.13;7405552;19;1280;-69
2022/09/13 04:52:51;;;;;;;;;;;;;;;24.15;62.89;100484.31;7405670;19;1338;-69
2022/09/13 04:55:19;;;;;;;;;;;;;;;24.17;63.01;100490.38;7404522;19;1854;-69
2022/09/13 04:57:47;;;;;;;;;;;;;;;24.13;62.76;100486.34;7405905;19;1368;-69
2022/09/13 05:00:16;;;;;;;;;;;;;;;24.15;62.61;100486.16;7406013;19;1380;-69
2022/09/13 05:02:45;;;;;;;;;;;;;;;24.16;62.71;100493.25;7403917;19;1397;-69
2022/09/13 05:05:13;;;;;;;;;;;;;;;24.16;62.86;100499.50;7404899;19;1311;-69
2022/09/13 05:07:42;;;;;;;;;;;;;;;24.17;62.97;100490.38;7405451;19;1297;-70
2022/09/13 05:10:12;;;;;;;;;;;;;;;24.20;62.69;100487.31;7404718;19;1396;-69
2022/09/13 05:12:41;;;;;;;;;;;;;;;24.24;62.56;100497.78;7402028;19;1642;-59
2022/09/13 05:15:11;;;;;;;;;;;;;;;24.21;62.57;100485.44;7403244;19;1865;-69
2022/09/13 05:17:39;;;;;;;;;;;;;;;24.22;62.54;100482.56;7404007;19;1837;-59
2022/09/13 05:20:08;;;;;;;;;;;;;;;24.24;62.55;100495.09;7402637;19;1395;-58
2022/09/13 05:22:36;;;;;;;;;;;;;;;24.27;62.55;100509.06;7402300;19;1302;-58
2022/09/13 05:25:04;;;;;;;;;;;;;;;24.28;62.70;100493.72;7404722;19;1317;-59
2022/09/13 05:27:35;;;;;;;;;;;;;;;24.27;62.59;100500.94;7406259;19;999;-59
2022/09/13 05:30:03;;;;;;;;;;;;;;;24.25;62.60;100508.38;7403245;19;1654;-59
2022/09/13 05:32:32;;;;;;;;;;;;;;;24.29;62.49;100488.13;7403145;19;1531;-59
2022/09/13 05:35:00;;;;;;;;;;;;;;;24.31;62.54;100496.03;7403088;19;1865;-59
2022/09/13 05:37:28;;;;;;;;;;;;;;;24.36;62.48;100518.81;7403820;19;1681;-59
2022/09/13 05:39:56;;;;;;;;;;;;;;;24.33;62.45;100516.47;7404971;19;1539;-69
2022/09/13 05:42:25;;;;;;;;;;;;;;;24.32;62.48;100513.94;7411680;19;1613;-69
2022/09/13 05:44:56;;;;;;;;;;;;;;;24.33;62.33;100512.91;7413858;19;1004;-70
2022/09/13 05:47:24;;;;;;;;;;;;;;;24.40;62.26;100505.78;7411290;19;1768;-70
2022/09/13 05:49:52;;;;;;;;;;;;;;;24.41;62.31;100512.88;7411552;19;1380;-70
2022/09/13 05:52:20;;;;;;;;;;;;;;;24.40;62.42;100522.84;7409765;19;1230;-70
2022/09/13 05:54:48;;;;;;;;;;;;;;;24.45;62.12;100519.59;7411454;19;1851;-70
2022/09/13 05:57:16;;;;;;;;;;;;;;;24.48;62.08;100527.38;7413001;19;1024;-70
2022/09/13 05:59:46;;;;;;;;;;;;;;;24.48;61.94;100518.44;7412077;19;1733;-70
2022/09/13 06:02:17;;;;;;;;;;;;;;;24.55;62.07;100532.94;7407090;19;1665;-70
2022/09/13 06:04:45;;;;;;;;;;;;;;;24.52;61.96;100531.44;7410173;19;1645;-70
2022/09/13 06:07:13;;;;;;;;;;;;;;;24.50;62.01;100519.94;7412035;19;944;-69
2022/09/13 06:09:41;;;;;;;;;;;;;;;24.54;62.09;100533.97;7409591;19;1673;-69
2022/09/13 06:12:09;;;;;;;;;;;;;;;24.54;62.01;100521.28;7410570;19;1011;-70
2022/09/13 06:14:38;;;;;;;;;;;;;;;24.55;62.07;100531.09;7410411;19;1846;-70
2022/09/13 06:17:06;;;;;;;;;;;;;;;24.59;61.78;100532.41;7411538;19;1563;-70
2022/09/13 06:19:38;;;;;;;;;;;;;;;24.58;62.01;100530.72;7411078;19;1564;-70
2022/09/13 06:22:06;;;;;;;;;;;;;;;24.63;61.72;100532.91;7410900;19;1539;-70
2022/09/13 06:24:36;;;;;;;;;;;;;;;24.61;61.64;100532.22;7409559;19;1355;-70
2022/09/13 06:27:04;;;;;;;;;;;;;;;24.63;61.88;100526.63;7411122;19;1619;-70
2022/09/13 06:29:33;;;;;;;;;;;;;;;24.62;61.64;100523.09;7410691;19;1394;-70
2022/09/13 06:32:01;;;;;;;;;;;;;;;24.61;62.06;100529.50;7411199;19;1559;-70
2022/09/13 06:34:29;;;;;;;;;;;;;;;24.62;61.79;100536.63;7410240;19;1852;-70
2022/09/13 06:36:59;;;;;;;;;;;;;;;24.63;61.68;100543.72;7410790;19;1536;-70
2022/09/13 06:39:30;;;;;;;;;;;;;;;24.63;61.81;100542.84;7410812;19;1040;-70
2022/09/13 06:41:58;;;;;;;;;;;;;;;24.64;61.82;100541.84;7410548;19;1788;-70
2022/09/13 06:44:27;;;;;;;;;;;;;;;24.61;61.84;100546.59;7410251;19;1702;-70
2022/09/13 06:46:55;;;;;;;;;;;;;;;24.64;61.68;100544.56;7410475;19;1551;-70
2022/09/13 06:49:23;;;;;;;;;;;;;;;24.63;61.78;100548.25;7409738;19;1563;-59
2022/09/13 06:51:52;;;;;;;;;;;;;;;24.64;61.69;100555.38;7408085;19;1607;-58
2022/09/13 06:54:23;;;;;;;;;;;;;;;24.69;61.74;100555.66;7406489;19;1667;-58
2022/09/13 06:56:51;;;;;;;;;;;;;;;24.67;61.84;100560.41;7406756;19;1847;-70
2022/09/13 06:59:19;;;;;;;;;;;;;;;24.65;61.67;100557.03;7407272;19;1277;-70
2022/09/13 07:01:47;;;;;;;;;;;;;;;24.67;61.74;100560.41;7408225;19;1381;-70
2022/09/13 07:04:18;;;;;;;;;;;;;;;24.68;61.60;100572.91;7409742;19;1384;-70
2022/09/13 07:06:47;;;;;;;;;;;;;;;24.67;61.81;100565.81;7407489;19;1439;-70
2022/09/13 07:09:16;;;;;;;;;;;;;;;24.68;61.74;100567.50;7408631;19;1432;-70
2022/09/13 07:11:48;;;;;;;;;;;;;;;24.70;61.73;100562.75;7409855;19;1268;-70
2022/09/13 07:14:18;;;;;;;;;;;;;;;24.72;61.44;100568.84;7409487;19;1436;-70
2022/09/13 07:16:46;;;;;;;;;;;;;;;24.80;61.51;100582.31;7406315;19;1911;-70
2022/09/13 07:19:15;;;;;;;;;;;;;;;24.74;61.66;100566.78;7408816;19;1412;-70
2022/09/13 07:21:44;;;;;;;;;;;;;;;24.75;61.59;100576.56;7409522;19;1320;-70
2022/09/13 07:24:12;;;;;;;;;;;;;;;24.71;61.71;100548.22;7409145;19;1363;-70
2022/09/13 07:26:40;;;;;;;;;;;;;;;24.71;61.69;100572.53;7408533;19;1334;-70
2022/09/13 07:29:13;;;;;;;;;;;;;;;24.72;61.74;100576.94;7407372;19;1294;-70
2022/09/13 07:31:42;;;;;;;;;;;;;;;24.72;61.67;100566.13;7407358;19;1312;-70
2022/09/13 07:34:14;;;;;;;;;;;;;;;24.74;61.67;100577.59;7408574;19;1443;-70
2022/09/13 07:36:43;;;;;;;;;;;;;;;24.75;61.97;100585.56;7405992;19;1848;-70
2022/09/13 07:39:12;;;;;;;;;;;;;;;24.72;61.61;100560.72;7407736;19;1386;-70
2022/09/13 07:41:40;;;;;;;;;;;;;;;24.72;61.70;100568.84;7409150;19;1311;-70
2022/09/13 07:44:08;;;;;;;;;;;;;;;24.71;61.67;100583.34;7408170;19;1419;-69
2022/09/13 07:46:42;;;;;;;;;;;;;;;24.72;61.80;100569.66;7407131;19;1443;-70
2022/09/13 07:49:11;;;;;;;;;;;;;;;24.73;61.74;100586.72;7407891;19;1384;-70
2022/09/13 07:51:40;;;;;;;;;;;;;;;24.75;61.60;100581.97;7408456;19;976;-70
2022/09/13 07:54:10;;;;;;;;;;;;;;;24.77;61.51;100578.09;7403827;19;1649;-70
2022/09/13 07:56:39;;;;;;;;;;;;;;;24.73;61.44;100568.66;7403486;19;1854;-70
2022/09/13 07:59:08;;;;;;;;;;;;;;;24.75;61.58;100572.03;7403247;19;1854;-70
2022/09/13 08:01:37;;;;;;;;;;;;;;;24.77;61.40;100561.00;7405074;19;1684;-70
2022/09/13 08:04:09;;;;;;;;;;;;;;;24.83;61.55;100564.88;7405945;19;1067;-69
2022/09/13 08:06:38;;;;;;;;;;;;;;;24.82;61.64;100569.44;7408077;19;926;-70
2022/09/13 08:09:08;;;;;;;;;;;;;;;24.76;61.66;100557.47;7402531;19;1596;-70
2022/09/13 08:11:37;;;;;;;;;;;;;;;24.84;61.67;100563.88;7408200;19;1657;-70
2022/09/13 08:14:06;;;;;;;;;;;;;;;24.83;61.53;100556.75;7407182;19;1599;-59
2022/09/13 08:16:35;;;;;;;;;;;;;;;24.80;61.55;100566.06;7406041;19;1854;-58
2022/09/13 08:19:05;;;;;;;;;;;;;;;24.80;61.59;100552.56;7408282;19;922;-58
2022/09/13 08:21:37;;;;;;;;;;;;;;;24.80;61.61;100536.31;7405179;19;1654;-58
2022/09/13 08:24:06;;;;;;;;;;;;;;;24.82;61.50;100547.81;7405747;19;1523;-58
2022/09/13 08:26:35;;;;;;;;;;;;;;;24.80;61.61;100533.63;7406954;19;1641;-69
2022/09/13 08:29:05;;;;;;;;;;;;;;;24.82;61.57;100545.09;7406742;19;1618;-70
2022/09/13 08:31:34;;;;;;;;;;;;;;;24.81;61.67;100541.56;7406864;19;981;-70
2022/09/13 08:34:02;;;;;;;;;;;;;;;24.81;61.60;100540.72;7405111;19;1741;-70
2022/09/13 08:36:31;;;;;;;;;;;;;;;24.78;61.24;100524.84;7404588;19;1838;-71
2022/09/13 08:39:02;;;;;;;;;;;;;;;24.67;60.40;100527.94;7405255;19;1633;-71
2022/09/13 08:41:53;;;;;;;;;;;;;;;24.48;58.81;100524.66;7404784;19;1383;-71
2022/09/13 08:44:26;;;;;;;;;;;;;;;24.65;60.44;100530.00;7403202;19;1421;-71
2022/09/13 08:46:57;;;;;;;;;;;;;;;24.75;61.05;100526.06;7404062;19;993;-71
2022/09/13 08:49:27;;;;;;;;;;;;;;;24.79;61.12;100540.06;7406349;19;1567;-70
2022/09/13 08:51:57;;;;;;;;;;;;;;;24.82;60.79;100537.00;7407142;19;992;-71
2022/09/13 08:54:28;;;;;;;;;;;;;;;24.85;60.77;100533.94;7404996;19;1736;-71
2022/09/13 08:57:01;;;;;;;;;;;;;;;24.84;60.80;100543.06;7403686;19;1864;-71
2022/09/13 08:59:46;;;;;;;;;;;;;;;24.82;60.71;100542.41;7404978;19;1650;-71
2022/09/13 09:02:22;;;;;;;;;;;;;;;24.84;60.67;100534.94;7403043;19;1516;-71
2022/09/13 09:04:54;;;;;;;;;;;;;;;24.84;60.54;100517.88;7406419;19;955;-71
2022/09/13 09:07:25;;;;;;;;;;;;;;;24.80;60.38;100520.94;7404963;19;1461;-71
2022/09/13 09:09:58;;;;;;;;;;;;;;;24.87;60.41;100517.50;7406153;19;1630;-72
2022/09/13 09:12:29;;;;;;;;;;;;;;;24.75;59.11;100525.19;7405456;19;1548;-72
2022/09/13 09:15:01;;;;;;;;;;;;;;;24.81;59.75;100524.50;7405239;19;1555;-72
2022/09/13 09:17:32;;;;;;;;;;;;;;;24.84;60.47;100518.72;7403382;19;1845;-71
2022/09/13 09:20:04;;;;;;;;;;;;;;;24.81;60.89;100505.56;7406717;19;1007;-71
2022/09/13 09:22:34;;;;;;;;;;;;;;;24.83;60.42;100500.81;7403334;19;1752;-71
2022/09/13 09:25:06;;;;;;;;;;;;;;;24.85;60.54;100498.78;7405947;19;1516;-71
2022/09/13 09:27:34;;;;;;;;;;;;;;;24.84;60.27;100497.09;7405284;19;1579;-58
2022/09/13 09:30:03;;;;;;;;;;;;;;;24.87;60.29;100480.50;7404532;19;1622;-58
2022/09/13 09:32:42;;;;;;;;;;;;;;;24.81;60.50;100487.47;7398158;19;1693;-58
2022/09/13 09:35:16;;;;;;;;;;;;;;;24.71;53.68;100481.47;7401224;19;1442;-58
2022/09/13 09:37:47;;;;;;;;;;;;;;;24.74;56.21;100474.84;7400144;19;1845;-58
2022/09/13 09:40:19;;;;;;;;;;;;;;;24.81;58.72;100481.22;7405141;19;1642;-57
2022/09/13 09:42:48;;;;;;;;;;;;;;;24.85;59.31;100490.66;7401032;19;1509;-58
2022/09/13 09:45:25;;;;;;;;;;;;;;;24.85;59.57;100474.44;7399465;19;1614;-58
2022/09/13 09:47:55;;;;;;;;;;;;;;;24.82;58.98;100472.09;7394706;19;1962;-58
2022/09/13 09:50:24;;;;;;;;;;;;;;;24.88;58.90;100470.53;7399517;19;1393;-58
2022/09/13 09:52:55;;;;;;;;;;;;;;;24.89;58.90;100466.78;7397812;19;1418;-58
2022/09/13 09:55:29;;;;;;;;;;;;;;;24.87;58.93;100475.09;7402049;19;1645;-58
2022/09/13 09:57:59;;;;;;;;;;;;;;;24.90;58.74;100469.31;7399719;19;1481;-71
2022/09/13 10:00:29;;;;;;;;;;;;;;;24.90;58.71;100463.06;7402724;19;1352;-58
2022/09/13 10:03:00;;;;;;;;;;;;;;;24.90;58.78;100458.50;7400692;19;1409;-58
2022/09/13 10:05:29;;;;;;;;;;;;;;;24.91;58.84;100459.31;7400335;19;1197;-58
2022/09/13 10:07:59;;;;;;;;;;;;;;;24.92;58.64;100467.25;7403715;19;1728;-58
2022/09/13 10:10:35;;;;;;;;;;;;;;;24.92;58.57;100456.44;7402991;19;1278;-58
2022/09/13 10:13:04;;;;;;;;;;;;;;;24.92;58.49;100466.44;7403862;19;1333;-58
2022/09/13 10:15:34;;;;;;;;;;;;;;;24.88;58.65;100465.09;7399838;19;1484;-57
2022/09/13 10:18:05;;;;;;;;;;;;;;;24.81;56.72;100449.63;7399434;19;1532;-58
2022/09/13 10:20:34;;;;;;;;;;;;;;;24.88;57.71;100438.06;7402301;19;1736;-58
2022/09/13 10:23:17;;;;;;;;;;;;;;;24.94;58.08;100464.38;7403592;19;1359;-57
2022/09/13 10:25:57;;;;;;;;;;;;;;;25.02;57.80;100469.72;7403885;19;1111;-58
2022/09/13 10:28:26;;;;;;;;;;;;;;;24.98;57.94;100444.06;7407170;19;996;-58
2022/09/13 10:30:56;;;;;;;;;;;;;;;24.98;57.82;100450.28;7411674;19;918;-58
2022/09/13 10:33:27;;;;;;;;;;;;;;;25.01;57.82;100447.25;7410584;19;1674;-58
2022/09/13 10:35:58;;;;;;;;;;;;;;;25.00;57.78;100434.72;7406632;19;1865;-58
2022/09/13 10:38:28;;;;;;;;;;;;;;;25.07;57.71;100448.38;7409528;19;1550;-60
2022/09/13 10:41:01;;;;;;;;;;;;;;;25.04;57.63;100432.50;7410493;19;1160;-57
2022/09/13 10:43:30;;;;;;;;;;;;;;;25.01;57.91;100428.31;7409918;19;1682;-58
2022/09/13 10:45:59;;;;;;;;;;;;;;;25.04;57.70;100428.97;7410291;19;1646;-58
2022/09/13 10:48:27;;;;;;;;;;;;;;;25.06;57.86;100449.38;7410210;19;1547;-58
2022/09/13 10:51:03;;;;;;;;;;;;;;;25.04;57.81;100426.25;7409317;19;1646;-58
2022/09/13 10:53:34;;;;;;;;;;;;;;;25.00;57.90;100432.00;7409738;19;1074;-58
2022/09/13 10:56:06;;;;;;;;;;;;;;;25.06;57.88;100418.78;7408570;19;1849;-57
2022/09/13 10:58:34;;;;;;;;;;;;;;;25.06;57.86;100413.38;7409113;19;1297;-58
2022/09/13 11:01:17;;;;;;;;;;;;;;;25.09;57.92;100419.28;7408282;19;1197;-57
2022/09/13 11:04:12;;;;;;;;;;;;;;;25.00;58.23;100420.38;7409350;19;1698;-58
2022/09/13 11:06:43;;;;;;;;;;;;;;;25.02;57.84;100413.75;7409562;19;1694;-58
2022/09/13 11:09:14;;;;;;;;;;;;;;;25.00;58.34;100421.19;7407360;19;1703;-58
2022/09/13 11:11:50;;;;;;;;;;;;;;;25.02;58.15;100410.19;7409215;19;992;-58
2022/09/13 11:14:35;;;;;;;;;;;;;;;25.04;57.96;100418.13;7409603;19;1075;-72
2022/09/13 11:17:09;;;;;;;;;;;;;;;25.01;58.05;100403.13;7408179;19;1861;-72
2022/09/13 11:19:48;;;;;;;;;;;;;;;24.95;57.80;100417.38;7410151;19;1070;-72
2022/09/13 11:22:29;;;;;;;;;;;;;;;24.98;58.17;100411.59;7407995;19;1650;-72
2022/09/13 11:25:05;;;;;;;;;;;;;;;24.97;58.24;100405.34;7408919;19;1458;-72
2022/09/13 11:27:39;;;;;;;;;;;;;;;24.97;58.17;100412.63;7407183;19;1351;-72
2022/09/13 11:30:12;;;;;;;;;;;;;;;24.92;58.22;100407.75;7409146;19;1372;-58
2022/09/13 11:32:51;;;;;;;;;;;;;;;24.90;58.42;100403.56;7408410;19;1431;-58
2022/09/13 11:35:46;;;;;;;;;;;;;;;24.93;58.54;100395.94;7406225;19;1381;-58
2022/09/13 11:38:24;;;;;;;;;;;;;;;24.97;58.23;100399.94;7401900;19;1874;-58
2022/09/13 11:40:58;;;;;;;;;;;;;;;24.88;50.96;100400.19;7408690;19;1367;-58
2022/09/13 11:43:38;;;;;;;;;;;;;;;24.57;47.88;100393.88;7407945;19;1654;-58
2022/09/13 11:46:11;;;;;;;;;;;;;;;24.39;44.92;100379.78;7408341;19;1535;-58
2022/09/13 11:48:46;;;;;;;;;;;;;;;24.29;44.82;100380.03;7407318;19;1642;-71
2022/09/13 11:51:19;;;;;;;;;;;;;;;24.32;43.91;100390.47;7407706;19;1834;-71
2022/09/13 11:54:14;;;;;;;;;;;;;;;24.34;43.31;100382.19;7407262;19;1421;-71
2022/09/13 11:56:44;;;;;;;;;;;;;;;24.44;43.86;100380.09;7402928;19;1817;-71
2022/09/13 11:59:20;;;;;;;;;;;;;;;24.39;45.30;100387.88;7405118;19;1805;-71
2022/09/13 12:01:50;;;;;;;;;;;;;;;24.47;45.58;100368.94;7406893;19;1444;-71
2022/09/13 12:04:22;;;;;;;;;;;;;;;24.50;45.59;100373.97;7407604;19;1462;-71
2022/09/13 12:06:52;;;;;;;;;;;;;;;24.47;44.60;100381.56;7405893;19;1633;-59
2022/09/13 12:09:23;;;;;;;;;;;;;;;24.40;42.07;100376.06;7407330;19;1423;-59
2022/09/13 12:11:55;;;;;;;;;;;;;;;24.44;42.89;100379.25;7407904;19;1555;-71
2022/09/13 12:14:29;;;;;;;;;;;;;;;24.35;42.03;100367.66;7405704;19;1119;-59
2022/09/13 12:16:59;;;;;;;;;;;;;;;24.48;43.63;100389.50;7406059;19;1853;-58
2022/09/13 12:19:30;;;;;;;;;;;;;;;24.43;43.22;100370.28;7407002;19;1412;-71
2022/09/13 12:22:02;;;;;;;;;;;;;;;24.34;42.21;100371.38;7406978;19;1395;-71
2022/09/13 12:24:35;;;;;;;;;;;;;;;24.29;41.88;100369.25;7406532;19;1383;-71
2022/09/13 12:27:07;;;;;;;;;;;;;;;24.26;41.04;100376.84;7406436;19;1383;-71
2022/09/13 12:29:41;;;;;;;;;;;;;;;24.27;41.82;100375.81;7407251;19;1335;-71
2022/09/13 12:32:11;;;;;;;;;;;;;;;24.26;41.50;100371.44;7405827;19;1327;-71
2022/09/13 12:34:44;;;;;;;;;;;;;;;24.20;40.49;100387.34;7406482;19;1457;-59
2022/09/13 12:37:20;;;;;;;;;;;;;;;24.21;40.64;100380.94;7405829;19;1857;-71
2022/09/13 12:40:07;;;;;;;;;;;;;;;24.18;40.22;100373.19;7406353;19;1754;-59
2022/09/13 12:42:47;;;;;;;;;;;;;;;24.19;40.65;100361.38;7404841;19;1854;-59
2022/09/13 12:45:27;;;;;;;;;;;;;;;24.21;41.29;100371.97;7403820;19;1681;-59
2022/09/13 12:48:12;;;;;;;;;;;;;;;24.15;39.52;100356.47;7406229;19;1371;-71
2022/09/13 12:50:47;;;;;;;;;;;;;;;24.12;40.20;100363.09;7404814;19;1371;-71
2022/09/13 12:53:25;;;;;;;;;;;;;;;24.15;39.10;100368.16;7406284;19;1293;-58
2022/09/13 12:56:04;;;;;;;;;;;;;;;24.18;40.10;100346.16;7405760;19;1326;-71
2022/09/13 12:58:44;;;;;;;;;;;;;;;24.24;40.21;100357.28;7402904;19;1865;-58
2022/09/13 13:01:17;;;;;;;;;;;;;;;24.25;40.06;100362.47;7405632;19;1382;-71
2022/09/13 13:03:50;;;;;;;;;;;;;;;24.29;40.22;100362.97;7404588;19;1505;-71
2022/09/13 13:06:27;;;;;;;;;;;;;;;24.20;40.02;100363.03;7405461;19;1522;-71
2022/09/13 13:08:57;;;;;;;;;;;;;;;24.15;40.24;100360.03;7405911;19;1615;-71
2022/09/13 13:11:26;;;;;;;;;;;;;;;24.19;40.55;100357.81;7406216;19;996;-71
2022/09/13 13:13:59;;;;;;;;;;;;;;;24.15;39.48;100357.34;7405457;19;1706;-71
2022/09/13 13:16:32;;;;;;;;;;;;;;;24.12;39.61;100363.09;7405926;19;1761;-59
2022/09/13 13:19:01;;;;;;;;;;;;;;;24.15;39.87;100361.88;7403442;19;1838;-58
2022/09/13 13:21:34;;;;;;;;;;;;;;;24.09;40.35;100357.19;7406151;19;1602;-71
2022/09/13 13:24:18;;;;;;;;;;;;;;;24.08;39.76;100361.78;7406378;19;956;-71